IGO1105 VERC-VNKT
Flight info
| Callsign | IGO1105 |
|---|---|
| Flight time | 0h 49m |
| Altitude | 32000 |
| Route | RRC W106 PPT G336 SMR DCT SIMRA SMRA3R |
| Aircraft | A320/M-SDE3FGHIRWY/LB1 |
Departure
| Time | 2026-04-23 01:15 |
|---|---|
| Airport | Birsa Munda Airport (VERC) |
Arrival
| Time | 2026-04-23 02:04 |
|---|---|
| Airport | Tribhuvan International Airport (VNKT) |
| Time | Latitude | Longitude | Altitude | Speed | Heading |
|---|---|---|---|---|---|
| 2026-04-23 00:59 | 23.31632 | 85.32491 | 2127 ft | 0 kts | 32° |
| 2026-04-23 01:09 | 23.31625 | 85.32486 | 2127 ft | 4 kts | 37° |
| 2026-04-23 01:09 | 23.31608 | 85.32466 | 2127 ft | 4 kts | 78° |
| 2026-04-23 01:09 | 23.31611 | 85.32445 | 2128 ft | 1 kts | 131° |
| 2026-04-23 01:09 | 23.31614 | 85.32441 | 2128 ft | 0 kts | 131° |
| 2026-04-23 01:11 | 23.31585 | 85.32465 | 2127 ft | 10 kts | 145° |
| 2026-04-23 01:12 | 23.31503 | 85.32502 | 2126 ft | 15 kts | 175° |
| 2026-04-23 01:12 | 23.31388 | 85.32486 | 2123 ft | 18 kts | 188° |
| 2026-04-23 01:12 | 23.31258 | 85.32481 | 2122 ft | 20 kts | 161° |
| 2026-04-23 01:12 | 23.31144 | 85.32587 | 2116 ft | 24 kts | 131° |
| 2026-04-23 01:13 | 23.31024 | 85.32733 | 2112 ft | 28 kts | 132° |
| 2026-04-23 01:13 | 23.30892 | 85.32894 | 2104 ft | 28 kts | 132° |
| 2026-04-23 01:13 | 23.30782 | 85.33038 | 2100 ft | 24 kts | 128° |
| 2026-04-23 01:13 | 23.30730 | 85.33170 | 2096 ft | 16 kts | 115° |
| 2026-04-23 01:14 | 23.30681 | 85.33166 | 2095 ft | 9 kts | 283° |
| 2026-04-23 01:14 | 23.30795 | 85.33013 | 2100 ft | 57 kts | 311° |
| 2026-04-23 01:14 | 23.31201 | 85.32516 | 2120 ft | 115 kts | 312° |
| 2026-04-23 01:14 | 23.31830 | 85.31744 | 2146 ft | 155 kts | 312° |
| 2026-04-23 01:15 | 23.32546 | 85.30860 | 2633 ft | 156 kts | 311° |
| 2026-04-23 01:15 | 23.33280 | 85.29974 | 3142 ft | 157 kts | 314° |
| 2026-04-23 01:15 | 23.34045 | 85.29084 | 3379 ft | 169 kts | 314° |
| 2026-04-23 01:15 | 23.34861 | 85.28138 | 3685 ft | 173 kts | 321° |
| 2026-04-23 01:16 | 23.35978 | 85.27640 | 3957 ft | 177 kts | 348° |
| 2026-04-23 01:16 | 23.37212 | 85.27396 | 4190 ft | 185 kts | 350° |
| 2026-04-23 01:16 | 23.38550 | 85.27158 | 4319 ft | 206 kts | 350° |
| 2026-04-23 01:16 | 23.40047 | 85.26899 | 4432 ft | 231 kts | 351° |
| 2026-04-23 01:17 | 23.41701 | 85.26598 | 4846 ft | 245 kts | 349° |
| 2026-04-23 01:17 | 23.43411 | 85.26253 | 5458 ft | 254 kts | 348° |
| 2026-04-23 01:17 | 23.45154 | 85.25881 | 6081 ft | 263 kts | 347° |
| 2026-04-23 01:17 | 23.46941 | 85.25501 | 6918 ft | 260 kts | 347° |
| 2026-04-23 01:18 | 23.48718 | 85.25131 | 7721 ft | 261 kts | 347° |
| 2026-04-23 01:18 | 23.50514 | 85.24762 | 8429 ft | 266 kts | 347° |
| 2026-04-23 01:18 | 23.52348 | 85.24390 | 9130 ft | 270 kts | 347° |
| 2026-04-23 01:18 | 23.54212 | 85.24017 | 9861 ft | 274 kts | 347° |
| 2026-04-23 01:19 | 23.56156 | 85.23618 | 10154 ft | 295 kts | 346° |
| 2026-04-23 01:19 | 23.58244 | 85.23174 | 10342 ft | 316 kts | 346° |
| 2026-04-23 01:19 | 23.60447 | 85.22702 | 10830 ft | 325 kts | 346° |
| 2026-04-23 01:19 | 23.62682 | 85.22229 | 11463 ft | 328 kts | 347° |
| 2026-04-23 01:20 | 23.64932 | 85.21754 | 12134 ft | 331 kts | 347° |
| 2026-04-23 01:20 | 23.67205 | 85.21279 | 12797 ft | 333 kts | 347° |
| 2026-04-23 01:20 | 23.69463 | 85.20810 | 13426 ft | 336 kts | 348° |
| 2026-04-23 01:20 | 23.71771 | 85.20334 | 13997 ft | 339 kts | 348° |
| 2026-04-23 01:21 | 23.74106 | 85.19853 | 14519 ft | 343 kts | 348° |
| 2026-04-23 01:21 | 23.76468 | 85.19364 | 15024 ft | 347 kts | 348° |
| 2026-04-23 01:21 | 23.78852 | 85.18869 | 15530 ft | 351 kts | 348° |
| 2026-04-23 01:21 | 23.81263 | 85.18366 | 16031 ft | 355 kts | 348° |
| 2026-04-23 01:22 | 23.83701 | 85.17855 | 16545 ft | 359 kts | 349° |
| 2026-04-23 01:22 | 23.86173 | 85.17338 | 17056 ft | 363 kts | 349° |
| 2026-04-23 01:22 | 23.88662 | 85.16819 | 17551 ft | 367 kts | 349° |
| 2026-04-23 01:22 | 23.91185 | 85.16294 | 18051 ft | 371 kts | 349° |
| 2026-04-23 01:23 | 23.93746 | 85.15760 | 18492 ft | 375 kts | 349° |
| 2026-04-23 01:23 | 23.96315 | 85.15217 | 18957 ft | 377 kts | 348° |
| 2026-04-23 01:23 | 23.98889 | 85.14601 | 19440 ft | 380 kts | 347° |
| 2026-04-23 01:23 | 24.01429 | 85.13928 | 19910 ft | 383 kts | 346° |
| 2026-04-23 01:24 | 24.04024 | 85.13209 | 20398 ft | 385 kts | 346° |
| 2026-04-23 01:24 | 24.06631 | 85.12484 | 20867 ft | 388 kts | 346° |
| 2026-04-23 01:24 | 24.09256 | 85.11761 | 21337 ft | 390 kts | 346° |
| 2026-04-23 01:24 | 24.11899 | 85.11040 | 21798 ft | 393 kts | 346° |
| 2026-04-23 01:25 | 24.14566 | 85.10321 | 22266 ft | 395 kts | 346° |
| 2026-04-23 01:25 | 24.17246 | 85.09604 | 22740 ft | 398 kts | 346° |
| 2026-04-23 01:25 | 24.19942 | 85.08884 | 23189 ft | 400 kts | 346° |
| 2026-04-23 01:25 | 24.22656 | 85.08161 | 23593 ft | 403 kts | 346° |
| 2026-04-23 01:26 | 24.25391 | 85.07431 | 23980 ft | 405 kts | 346° |
| 2026-04-23 01:26 | 24.28142 | 85.06695 | 24362 ft | 407 kts | 346° |
| 2026-04-23 01:26 | 24.30860 | 85.05969 | 24731 ft | 409 kts | 346° |
| 2026-04-23 01:26 | 24.33637 | 85.05224 | 25123 ft | 411 kts | 346° |
| 2026-04-23 01:27 | 24.36419 | 85.04476 | 25515 ft | 413 kts | 345° |
| 2026-04-23 01:27 | 24.39217 | 85.03726 | 25881 ft | 415 kts | 345° |
| 2026-04-23 01:27 | 24.42033 | 85.02971 | 26250 ft | 418 kts | 345° |
| 2026-04-23 01:27 | 24.44864 | 85.02209 | 26614 ft | 420 kts | 345° |
| 2026-04-23 01:28 | 24.47710 | 85.01443 | 26985 ft | 422 kts | 345° |
| 2026-04-23 01:28 | 24.50571 | 85.00677 | 27354 ft | 424 kts | 345° |
| 2026-04-23 01:28 | 24.53446 | 84.99907 | 27727 ft | 426 kts | 344° |
| 2026-04-23 01:28 | 24.56335 | 84.99131 | 28087 ft | 428 kts | 344° |
| 2026-04-23 01:29 | 24.59238 | 84.98350 | 28463 ft | 431 kts | 344° |
| 2026-04-23 01:29 | 24.62155 | 84.97564 | 28849 ft | 433 kts | 344° |
| 2026-04-23 01:29 | 24.65054 | 84.96783 | 29239 ft | 434 kts | 344° |
| 2026-04-23 01:29 | 24.67993 | 84.95993 | 29634 ft | 436 kts | 344° |
| 2026-04-23 01:30 | 24.70945 | 84.95200 | 29983 ft | 438 kts | 345° |
| 2026-04-23 01:30 | 24.73978 | 84.94699 | 30279 ft | 443 kts | 354° |
| 2026-04-23 01:30 | 24.77081 | 84.94816 | 30551 ft | 451 kts | 4° |
| 2026-04-23 01:30 | 24.80176 | 84.95360 | 30909 ft | 452 kts | 5° |
| 2026-04-23 01:31 | 24.83280 | 84.95917 | 31283 ft | 452 kts | 5° |
| 2026-04-23 01:31 | 24.86394 | 84.96468 | 31635 ft | 453 kts | 4° |
| 2026-04-23 01:31 | 24.89518 | 84.97014 | 31751 ft | 452 kts | 4° |
| 2026-04-23 01:31 | 24.92587 | 84.97555 | 31783 ft | 442 kts | 4° |
| 2026-04-23 01:32 | 24.98617 | 84.98616 | 31776 ft | 435 kts | 4° |
| 2026-04-23 01:32 | 25.04553 | 84.99657 | 31775 ft | 434 kts | 4° |
| 2026-04-23 01:33 | 25.10531 | 85.00715 | 31775 ft | 434 kts | 4° |
| 2026-04-23 01:33 | 25.16496 | 85.01769 | 31774 ft | 434 kts | 4° |
| 2026-04-23 01:34 | 25.22468 | 85.02825 | 31768 ft | 434 kts | 4° |
| 2026-04-23 01:34 | 25.28433 | 85.03886 | 31770 ft | 434 kts | 4° |
| 2026-04-23 01:35 | 25.34362 | 85.04943 | 31777 ft | 434 kts | 4° |
| 2026-04-23 01:35 | 25.40325 | 85.05999 | 31786 ft | 434 kts | 4° |
| 2026-04-23 01:36 | 25.46282 | 85.07061 | 31792 ft | 433 kts | 4° |
| 2026-04-23 01:36 | 25.52243 | 85.08125 | 31794 ft | 433 kts | 4° |
| 2026-04-23 01:37 | 25.58197 | 85.09138 | 31806 ft | 431 kts | 1° |
| 2026-04-23 01:37 | 25.64102 | 85.08925 | 31807 ft | 425 kts | 352° |
| 2026-04-23 01:38 | 25.69990 | 85.08437 | 31803 ft | 424 kts | 352° |
| 2026-04-23 01:38 | 25.75870 | 85.07960 | 31797 ft | 423 kts | 352° |
| 2026-04-23 01:39 | 25.81746 | 85.07479 | 31795 ft | 423 kts | 352° |
| 2026-04-23 01:39 | 25.87619 | 85.06997 | 31802 ft | 423 kts | 352° |
| 2026-04-23 01:40 | 25.93492 | 85.06514 | 31815 ft | 422 kts | 353° |
| 2026-04-23 01:40 | 25.99303 | 85.06039 | 31759 ft | 420 kts | 353° |
| 2026-04-23 01:41 | 26.02193 | 85.05804 | 31504 ft | 411 kts | 353° |
| 2026-04-23 01:41 | 26.05011 | 85.05578 | 31267 ft | 403 kts | 353° |
| 2026-04-23 01:41 | 26.07795 | 85.05355 | 31037 ft | 398 kts | 353° |
| 2026-04-23 01:41 | 26.10552 | 85.05142 | 30792 ft | 396 kts | 353° |
| 2026-04-23 01:42 | 26.13297 | 85.04936 | 30562 ft | 394 kts | 353° |
| 2026-04-23 01:42 | 26.16023 | 85.04733 | 30332 ft | 392 kts | 354° |
| 2026-04-23 01:42 | 26.18735 | 85.04531 | 30104 ft | 390 kts | 354° |
| 2026-04-23 01:42 | 26.21438 | 85.04333 | 29869 ft | 388 kts | 354° |
| 2026-04-23 01:43 | 26.24130 | 85.04137 | 29603 ft | 387 kts | 354° |
| 2026-04-23 01:43 | 26.26811 | 85.03940 | 29331 ft | 386 kts | 354° |
| 2026-04-23 01:43 | 26.29483 | 85.03741 | 29061 ft | 384 kts | 354° |
| 2026-04-23 01:43 | 26.32146 | 85.03540 | 28805 ft | 383 kts | 354° |
| 2026-04-23 01:44 | 26.34804 | 85.03340 | 28536 ft | 381 kts | 355° |
| 2026-04-23 01:44 | 26.37446 | 85.03139 | 28281 ft | 379 kts | 355° |
| 2026-04-23 01:44 | 26.40054 | 85.02942 | 27980 ft | 374 kts | 355° |
| 2026-04-23 01:44 | 26.42647 | 85.02749 | 27596 ft | 371 kts | 355° |
| 2026-04-23 01:45 | 26.45209 | 85.02557 | 27212 ft | 368 kts | 355° |
| 2026-04-23 01:45 | 26.47759 | 85.02366 | 26819 ft | 366 kts | 355° |
| 2026-04-23 01:45 | 26.50261 | 85.02179 | 26439 ft | 364 kts | 355° |
| 2026-04-23 01:45 | 26.52790 | 85.01988 | 26047 ft | 362 kts | 356° |
| 2026-04-23 01:46 | 26.55289 | 85.01800 | 25667 ft | 360 kts | 356° |
| 2026-04-23 01:46 | 26.57781 | 85.01613 | 25262 ft | 358 kts | 356° |
| 2026-04-23 01:46 | 26.60266 | 85.01428 | 24862 ft | 356 kts | 357° |
| 2026-04-23 01:46 | 26.62740 | 85.01306 | 24445 ft | 356 kts | 359° |
| 2026-04-23 01:47 | 26.65212 | 85.01250 | 24032 ft | 355 kts | 360° |
| 2026-04-23 01:47 | 26.67680 | 85.01224 | 23623 ft | 355 kts | 0° |
| 2026-04-23 01:47 | 26.70149 | 85.01204 | 23176 ft | 355 kts | 0° |
| 2026-04-23 01:47 | 26.72611 | 85.01179 | 22730 ft | 353 kts | 0° |
| 2026-04-23 01:48 | 26.75060 | 85.01142 | 22309 ft | 351 kts | 0° |
| 2026-04-23 01:48 | 26.77495 | 85.01095 | 21889 ft | 349 kts | 360° |
| 2026-04-23 01:48 | 26.79918 | 85.01046 | 21486 ft | 347 kts | 359° |
| 2026-04-23 01:48 | 26.82330 | 85.00995 | 21070 ft | 346 kts | 359° |
| 2026-04-23 01:49 | 26.84734 | 85.00943 | 20656 ft | 345 kts | 359° |
| 2026-04-23 01:49 | 26.87130 | 85.00891 | 20235 ft | 344 kts | 359° |
| 2026-04-23 01:49 | 26.89490 | 85.00841 | 19831 ft | 343 kts | 359° |
| 2026-04-23 01:49 | 26.91875 | 85.00727 | 19418 ft | 343 kts | 356° |
| 2026-04-23 01:50 | 26.94256 | 85.00517 | 18986 ft | 343 kts | 355° |
| 2026-04-23 01:50 | 26.96636 | 85.00260 | 18554 ft | 344 kts | 354° |
| 2026-04-23 01:50 | 26.99019 | 84.99990 | 18112 ft | 345 kts | 354° |
| 2026-04-23 01:50 | 27.01405 | 84.99724 | 17640 ft | 344 kts | 354° |
| 2026-04-23 01:51 | 27.03783 | 84.99469 | 17219 ft | 342 kts | 354° |
| 2026-04-23 01:51 | 27.06149 | 84.99225 | 16790 ft | 341 kts | 354° |
| 2026-04-23 01:51 | 27.08506 | 84.98990 | 16361 ft | 339 kts | 354° |
| 2026-04-23 01:51 | 27.10864 | 84.98761 | 15866 ft | 340 kts | 354° |
| 2026-04-23 01:52 | 27.13214 | 84.98930 | 15434 ft | 341 kts | 15° |
| 2026-04-23 01:52 | 27.15245 | 85.00206 | 15092 ft | 332 kts | 43° |
| 2026-04-23 01:52 | 27.16513 | 85.02278 | 14895 ft | 318 kts | 67° |
| 2026-04-23 01:52 | 27.16967 | 85.04682 | 14336 ft | 317 kts | 82° |
| 2026-04-23 01:53 | 27.17397 | 85.07105 | 13757 ft | 314 kts | 69° |
| 2026-04-23 01:53 | 27.18241 | 85.09325 | 13333 ft | 306 kts | 58° |
| 2026-04-23 01:53 | 27.19404 | 85.11299 | 12986 ft | 298 kts | 48° |
| 2026-04-23 01:53 | 27.20775 | 85.12938 | 12862 ft | 278 kts | 39° |
| 2026-04-23 01:54 | 27.22255 | 85.14221 | 12662 ft | 262 kts | 30° |
| 2026-04-23 01:54 | 27.23833 | 85.15188 | 12257 ft | 256 kts | 21° |
| 2026-04-23 01:54 | 27.25474 | 85.15931 | 11864 ft | 251 kts | 19° |
| 2026-04-23 01:54 | 27.27047 | 85.16637 | 11762 ft | 236 kts | 19° |
| 2026-04-23 01:55 | 27.28029 | 85.17079 | 11720 ft | 223 kts | 19° |
| 2026-04-23 01:55 | 27.29416 | 85.17703 | 11519 ft | 208 kts | 19° |
| 2026-04-23 01:55 | 27.31179 | 85.18495 | 11040 ft | 204 kts | 19° |
| 2026-04-23 01:55 | 27.32499 | 85.19092 | 10653 ft | 203 kts | 19° |
| 2026-04-23 01:56 | 27.33383 | 85.19494 | 10391 ft | 203 kts | 19° |
| 2026-04-23 01:56 | 27.34687 | 85.20085 | 10061 ft | 202 kts | 19° |
| 2026-04-23 01:56 | 27.35971 | 85.20667 | 9872 ft | 201 kts | 20° |
| 2026-04-23 01:56 | 27.37279 | 85.21262 | 9789 ft | 203 kts | 19° |
| 2026-04-23 01:57 | 27.38588 | 85.21855 | 9686 ft | 203 kts | 20° |
| 2026-04-23 01:57 | 27.39896 | 85.22449 | 9637 ft | 202 kts | 19° |
| 2026-04-23 01:57 | 27.41202 | 85.23043 | 9541 ft | 202 kts | 20° |
| 2026-04-23 01:57 | 27.42503 | 85.23634 | 9448 ft | 201 kts | 19° |
| 2026-04-23 01:58 | 27.43803 | 85.24224 | 9365 ft | 201 kts | 20° |
| 2026-04-23 01:58 | 27.45127 | 85.24728 | 9176 ft | 201 kts | 9° |
| 2026-04-23 01:58 | 27.46504 | 85.24859 | 8870 ft | 197 kts | 355° |
| 2026-04-23 01:58 | 27.47843 | 85.24618 | 8603 ft | 194 kts | 342° |
| 2026-04-23 01:59 | 27.49139 | 85.24216 | 8357 ft | 193 kts | 343° |
| 2026-04-23 01:59 | 27.50435 | 85.23827 | 8124 ft | 193 kts | 345° |
| 2026-04-23 01:59 | 27.51766 | 85.23618 | 7922 ft | 194 kts | 356° |
| 2026-04-23 01:59 | 27.53117 | 85.23717 | 7683 ft | 195 kts | 8° |
| 2026-04-23 02:00 | 27.54429 | 85.24124 | 7456 ft | 196 kts | 20° |
| 2026-04-23 02:00 | 27.55640 | 85.24827 | 7222 ft | 196 kts | 32° |
| 2026-04-23 02:00 | 27.56709 | 85.25784 | 6989 ft | 196 kts | 39° |
| 2026-04-23 02:00 | 27.57749 | 85.26776 | 6743 ft | 195 kts | 39° |
| 2026-04-23 02:01 | 27.58697 | 85.27803 | 6539 ft | 184 kts | 49° |
| 2026-04-23 02:01 | 27.59419 | 85.28918 | 6324 ft | 172 kts | 58° |
| 2026-04-23 02:01 | 27.60043 | 85.30032 | 6087 ft | 167 kts | 52° |
| 2026-04-23 02:01 | 27.60797 | 85.31025 | 5890 ft | 165 kts | 44° |
| 2026-04-23 02:02 | 27.61652 | 85.31887 | 5715 ft | 164 kts | 37° |
| 2026-04-23 02:02 | 27.62587 | 85.32605 | 5510 ft | 161 kts | 29° |
| 2026-04-23 02:02 | 27.63584 | 85.33163 | 5302 ft | 159 kts | 21° |
| 2026-04-23 02:02 | 27.64598 | 85.33619 | 5086 ft | 158 kts | 21° |
| 2026-04-23 02:03 | 27.65621 | 85.34082 | 4891 ft | 156 kts | 21° |
| 2026-04-23 02:03 | 27.66615 | 85.34533 | 4705 ft | 155 kts | 21° |
| 2026-04-23 02:03 | 27.67616 | 85.34986 | 4517 ft | 155 kts | 21° |
| 2026-04-23 02:03 | 27.68616 | 85.35443 | 4355 ft | 155 kts | 20° |
| 2026-04-23 02:04 | 27.69533 | 85.35857 | 4347 ft | 107 kts | 21° |
| 2026-04-23 02:04 | 27.69847 | 85.35996 | 4367 ft | 19 kts | 17° |
| 2026-04-23 02:04 | 27.69908 | 85.35951 | 4361 ft | 2 kts | 294° |
| 2026-04-23 02:05 | 27.69910 | 85.35931 | 4356 ft | 6 kts | 276° |
| 2026-04-23 02:05 | 27.69924 | 85.35862 | 4365 ft | 10 kts | 290° |
| 2026-04-23 02:06 | 27.69941 | 85.35811 | 4364 ft | 3 kts | 291° |
| 2026-04-23 02:06 | 27.69942 | 85.35807 | 4366 ft | 0 kts | 291° |